createdAt,value
2022-12-25T00:00:35.411Z,99209.19
2022-12-25T00:03:37.961Z,99207.50
2022-12-25T00:06:39.933Z,99215.63
2022-12-25T00:09:41.809Z,99212.97
2022-12-25T00:12:43.789Z,99207.66
2022-12-25T00:15:45.637Z,99213.13
2022-12-25T00:18:47.655Z,99209.75
2022-12-25T00:21:49.648Z,99217.59
2022-12-25T00:24:51.511Z,99220.97
2022-12-25T00:27:53.399Z,99210.44
2022-12-25T00:30:55.270Z,99212.28
2022-12-25T00:33:57.147Z,99210.72
2022-12-25T00:36:58.972Z,99217.19
2022-12-25T00:40:00.887Z,99213.81
2022-12-25T00:43:02.668Z,99215.09
2022-12-25T00:46:06.394Z,99216.47
2022-12-25T00:49:08.791Z,99214.81
2022-12-25T00:52:10.763Z,99213.97
2022-12-25T00:55:12.721Z,99213.13
2022-12-25T00:58:14.598Z,99217.59
2022-12-25T01:01:16.742Z,99215.09
2022-12-25T01:04:18.740Z,99210.59
2022-12-25T01:07:22.543Z,99211.44
2022-12-25T01:10:24.449Z,99226.44
2022-12-25T01:13:27.379Z,99221.09
2022-12-25T01:16:29.218Z,99222.38
2022-12-25T01:19:31.106Z,99219.44
2022-12-25T01:22:32.896Z,99225.72
2022-12-25T01:25:34.826Z,99225.72
2022-12-25T01:28:36.889Z,99224.88
2022-12-25T01:31:38.773Z,99225.03
2022-12-25T01:34:40.800Z,99226.00
2022-12-25T01:37:42.625Z,99226.28
2022-12-25T01:40:44.517Z,99226.16
2022-12-25T01:43:57.331Z,99224.47
2022-12-25T01:46:59.223Z,99220.97
2022-12-25T01:50:01.091Z,99231.59
2022-12-25T01:53:04.188Z,99230.63
2022-12-25T01:56:08.386Z,99228.06
2022-12-25T01:59:12.063Z,99226.53
2022-12-25T02:02:14.815Z,99232.97
2022-12-25T02:05:22.920Z,99232.13
2022-12-25T02:08:25.173Z,99229.63
2022-12-25T02:11:45.980Z,99229.75
2022-12-25T02:14:49.907Z,99229.06
2022-12-25T02:18:05.323Z,99230.03
2022-12-25T02:21:19.188Z,99228.50
2022-12-25T02:24:38.550Z,99229.63
2022-12-25T02:28:07.823Z,99227.09
2022-12-25T02:31:18.476Z,99234.09
2022-12-25T02:34:44.181Z,99235.91
2022-12-25T02:38:11.370Z,99241.22
2022-12-25T02:41:16.667Z,99243.06
2022-12-25T02:44:40.673Z,99247.53
2022-12-25T02:48:01.126Z,99245.00
2022-12-25T02:51:24.380Z,99248.50
2022-12-25T02:54:53.396Z,99250.88
2022-12-25T02:58:18.334Z,99245.00
2022-12-25T03:01:46.559Z,99250.31
2022-12-25T03:05:10.236Z,99260.81
2022-12-25T03:08:18.699Z,99262.63
2022-12-25T03:11:33.193Z,99261.09
2022-12-25T03:14:53.645Z,99265.56
2022-12-25T03:17:59.400Z,99269.06
2022-12-25T03:21:20.444Z,99269.78
2022-12-25T03:24:41.421Z,99266.56
2022-12-25T03:27:47.879Z,99264.19
2022-12-25T03:31:11.453Z,99273.84
2022-12-25T03:34:43.628Z,99268.50
2022-12-25T03:38:39.678Z,99270.19
2022-12-25T03:42:06.538Z,99276.63
2022-12-25T03:45:55.315Z,99285.59
2022-12-25T03:49:23.883Z,99287.53
2022-12-25T03:52:47.342Z,99280.53
2022-12-25T03:56:09.929Z,99283.91
2022-12-25T03:59:30.440Z,99281.66
2022-12-25T04:02:50.977Z,99282.78
2022-12-25T04:06:11.600Z,99294.66
2022-12-25T04:09:32.009Z,99300.09
2022-12-25T04:12:52.353Z,99295.75
2022-12-25T04:16:13.483Z,99303.31
2022-12-25T04:19:34.033Z,99304.69
2022-12-25T04:22:54.449Z,99296.97
2022-12-25T04:26:18.290Z,99309.28
2022-12-25T04:29:38.687Z,99309.56
2022-12-25T04:32:59.040Z,99312.94
2022-12-25T04:36:09.832Z,99310.69
2022-12-25T04:39:11.819Z,99304.53
2022-12-25T04:42:13.746Z,99309.13
2022-12-25T04:45:15.607Z,99308.41
2022-12-25T04:48:17.370Z,99312.06
2022-12-25T04:51:23.023Z,99318.34
2022-12-25T04:54:24.882Z,99315.16
2022-12-25T04:57:26.662Z,99331.09
2022-12-25T05:00:28.506Z,99336.28
2022-12-25T05:03:31.444Z,99326.31
2022-12-25T05:06:33.210Z,99335.81
2022-12-25T05:09:35.220Z,99339.47
2022-12-25T05:12:37.192Z,99335.56
2022-12-25T05:15:43.216Z,99335.28
2022-12-25T05:18:45.297Z,99330.94
2022-12-25T05:21:47.136Z,99330.94
2022-12-25T05:24:49.068Z,99331.94
2022-12-25T05:27:54.028Z,99336.94
2022-12-25T05:30:57.540Z,99333.59
2022-12-25T05:33:59.574Z,99343.41
2022-12-25T05:37:01.404Z,99343.41
2022-12-25T05:40:04.542Z,99352.03
2022-12-25T05:43:06.930Z,99353.31
2022-12-25T05:46:10.423Z,99357.09
2022-12-25T05:49:12.346Z,99358.91
2022-12-25T05:52:14.511Z,99364.09
2022-12-25T05:55:16.518Z,99362.66
2022-12-25T05:58:18.364Z,99371.59
2022-12-25T06:01:23.239Z,99383.91
2022-12-25T06:04:25.195Z,99379.56
2022-12-25T06:07:27.036Z,99380.41
2022-12-25T06:10:28.907Z,99374.97
2022-12-25T06:13:31.602Z,99379.44
2022-12-25T06:16:37.845Z,99377.50
2022-12-25T06:19:41.985Z,99381.84
2022-12-25T06:22:43.872Z,99387.03
2022-12-25T06:25:45.741Z,99382.41
2022-12-25T06:28:47.752Z,99387.88
2022-12-25T06:31:49.762Z,99388.25
2022-12-25T06:34:51.748Z,99383.06
2022-12-25T06:37:53.930Z,99379.72
2022-12-25T06:40:55.739Z,99388.66
2022-12-25T06:44:00.159Z,99381.53
2022-12-25T06:47:02.039Z,99385.16
2022-12-25T06:50:06.044Z,99389.63
2022-12-25T06:53:07.888Z,99391.31
2022-12-25T06:56:15.975Z,99392.41
2022-12-25T06:59:18.001Z,99394.34
2022-12-25T07:02:22.427Z,99387.38
2022-12-25T07:05:24.245Z,99396.03
2022-12-25T07:08:26.135Z,99390.59
2022-12-25T07:11:28.038Z,99394.22
2022-12-25T07:14:29.899Z,99399.66
2022-12-25T07:17:34.645Z,99396.75
2022-12-25T07:20:36.880Z,99398.69
2022-12-25T07:23:39.299Z,99393.38
2022-12-25T07:26:41.098Z,99398.56
2022-12-25T07:29:42.981Z,99398.44
2022-12-25T07:32:49.982Z,99403.03
2022-12-25T07:35:52.177Z,99407.38
2022-12-25T07:38:53.969Z,99415.22
2022-12-25T07:41:56.530Z,99408.81
2022-12-25T07:45:02.491Z,99406.84
2022-12-25T07:48:05.861Z,99411.66
2022-12-25T07:51:12.503Z,99408.56
2022-12-25T07:54:14.400Z,99415.03
2022-12-25T07:57:16.237Z,99414.78
2022-12-25T08:00:18.748Z,99419.81
2022-12-25T08:03:20.908Z,99429.22
2022-12-25T08:06:26.868Z,99426.44
2022-12-25T08:09:28.754Z,99429.09
2022-12-25T08:12:30.671Z,99432.47
2022-12-25T08:15:32.602Z,99436.78
2022-12-25T08:18:35.285Z,99435.81
2022-12-25T08:21:38.180Z,99438.34
2022-12-25T08:24:40.017Z,99439.06
2022-12-25T08:27:41.856Z,99435.28
2022-12-25T08:30:43.853Z,99429.25
2022-12-25T08:33:46.303Z,99437.09
2022-12-25T08:36:48.069Z,99432.50
2022-12-25T08:39:49.936Z,99435.88
2022-12-25T08:42:51.808Z,99433.91
2022-12-25T08:45:53.747Z,99439.38
2022-12-25T08:48:56.910Z,99438.53
2022-12-25T08:51:58.897Z,99441.75
2022-12-25T08:55:00.677Z,99436.72
2022-12-25T08:58:02.577Z,99434.84
2022-12-25T09:01:05.678Z,99437.78
2022-12-25T09:04:07.780Z,99437.78
2022-12-25T09:07:09.625Z,99446.47
2022-12-25T09:10:11.627Z,99447.31
2022-12-25T09:13:14.237Z,99441.84
2022-12-25T09:16:20.324Z,99440.16
2022-12-25T09:19:23.868Z,99452.47
2022-12-25T09:22:26.064Z,99444.25
2022-12-25T09:25:28.179Z,99440.59
2022-12-25T09:28:30.560Z,99442.16
2022-12-25T09:31:32.477Z,99445.41
2022-12-25T09:34:34.601Z,99454.78
2022-12-25T09:37:36.464Z,99454.66
2022-12-25T09:41:02.977Z,99448.22
2022-12-25T09:44:21.792Z,99446.28
2022-12-25T09:47:27.972Z,99449.38
2022-12-25T09:50:54.785Z,99454.56
2022-12-25T09:54:07.205Z,99450.94
2022-12-25T09:57:12.674Z,99445.63
2022-12-25T10:00:17.496Z,99448.53
2022-12-25T10:03:31.805Z,99449.38
2022-12-25T10:06:51.650Z,99445.47
2022-12-25T10:10:12.195Z,99452.47
2022-12-25T10:13:22.857Z,99449.41
2022-12-25T10:17:03.718Z,99450.84
2022-12-25T10:20:14.101Z,99443.56
2022-12-25T10:23:22.673Z,99452.16
2022-12-25T10:26:26.658Z,99442.22
2022-12-25T10:29:31.728Z,99440.78
2022-12-25T10:32:34.042Z,99443.31
2022-12-25T10:35:37.947Z,99443.00
2022-12-25T10:38:39.800Z,99447.88
2022-12-25T10:41:53.733Z,99449.81
2022-12-25T10:45:04.675Z,99441.00
2022-12-25T10:48:08.074Z,99444.50
2022-12-25T10:51:10.607Z,99453.91
2022-12-25T10:54:35.644Z,99446.06
2022-12-25T10:57:45.956Z,99451.94
2022-12-25T11:01:07.831Z,99448.56
2022-12-25T11:04:20.117Z,99455.31
2022-12-25T11:07:26.493Z,99456.28
2022-12-25T11:10:32.345Z,99453.06
2022-12-25T11:13:49.072Z,99463.81
2022-12-25T11:16:51.095Z,99468.72
2022-12-25T11:19:58.351Z,99470.41
2022-12-25T11:23:00.210Z,99473.06
2022-12-25T11:26:05.553Z,99463.13
2022-12-25T11:29:23.418Z,99458.66
2022-12-25T11:32:34.081Z,99460.31
2022-12-25T11:35:46.104Z,99461.31
2022-12-25T11:38:48.124Z,99469.81
2022-12-25T11:41:59.006Z,99466.84
2022-12-25T11:45:13.849Z,99461.94
2022-12-25T11:48:25.921Z,99467.13
2022-12-25T11:51:37.265Z,99456.34
2022-12-25T11:54:50.886Z,99463.47
2022-12-25T11:57:57.334Z,99467.97
2022-12-25T12:01:03.172Z,99475.22
2022-12-25T12:04:14.066Z,99468.09
2022-12-25T12:07:26.792Z,99465.44
2022-12-25T12:10:41.143Z,99472.56
2022-12-25T12:14:16.590Z,99481.78
2022-12-25T12:17:19.288Z,99482.03
2022-12-25T12:20:24.553Z,99487.22
2022-12-25T12:23:29.034Z,99489.88
2022-12-25T12:26:37.951Z,99500.78
2022-12-25T12:29:43.548Z,99496.72
2022-12-25T12:32:50.259Z,99502.41
2022-12-25T12:35:52.759Z,99498.06
2022-12-25T12:38:56.936Z,99502.09
2022-12-25T12:41:58.951Z,99504.75
2022-12-25T12:45:17.722Z,99512.72
2022-12-25T12:48:26.414Z,99503.53
2022-12-25T12:51:32.149Z,99513.06
2022-12-25T12:54:51.415Z,99511.22
2022-12-25T12:58:00.305Z,99505.47
2022-12-25T13:01:17.539Z,99512.47
2022-12-25T13:04:37.680Z,99509.94
2022-12-25T13:07:54.206Z,99514.53
2022-12-25T13:11:22.785Z,99514.41
2022-12-25T13:14:25.154Z,99517.78
2022-12-25T13:17:28.411Z,99520.19
2022-12-25T13:20:47.090Z,99530.44
2022-12-25T13:23:49.013Z,99526.94
2022-12-25T13:26:51.490Z,99533.94
2022-12-25T13:29:53.341Z,99533.94
2022-12-25T13:32:57.018Z,99536.59
2022-12-25T13:35:59.273Z,99534.63
2022-12-25T13:39:01.679Z,99539.97
2022-12-25T13:42:07.052Z,99538.16
2022-12-25T13:45:30.441Z,99544.31
2022-12-25T13:48:32.859Z,99541.78
2022-12-25T13:51:34.746Z,99543.59
2022-12-25T13:54:36.589Z,99548.78
2022-12-25T13:57:41.840Z,99552.28
2022-12-25T14:00:48.842Z,99557.59
2022-12-25T14:03:51.449Z,99558.69
2022-12-25T14:06:54.130Z,99560.06
2022-12-25T14:10:02.282Z,99571.53
2022-12-25T14:13:07.271Z,99569.84
2022-12-25T14:16:10.036Z,99565.75
2022-12-25T14:19:24.820Z,99573.16
2022-12-25T14:22:27.955Z,99570.75
2022-12-25T14:25:33.452Z,99575.09
2022-12-25T14:28:37.132Z,99574.38
2022-12-25T14:31:39.991Z,99581.50
2022-12-25T14:34:43.966Z,99583.72
2022-12-25T14:37:46.741Z,99584.09
2022-12-25T14:40:58.450Z,99578.09
2022-12-25T14:44:02.611Z,99578.78
2022-12-25T14:47:19.247Z,99590.53
2022-12-25T14:50:42.468Z,99591.50
2022-12-25T14:53:52.466Z,99587.16
2022-12-25T14:56:56.327Z,99585.59
2022-12-25T15:00:02.299Z,99585.84
2022-12-25T15:03:20.833Z,99591.94
2022-12-25T15:06:24.857Z,99597.84
2022-12-25T15:09:29.928Z,99604.00
2022-12-25T15:12:32.043Z,99603.75
2022-12-25T15:15:34.765Z,99601.78
2022-12-25T15:18:39.649Z,99608.94
2022-12-25T15:21:41.607Z,99609.78
2022-12-25T15:24:43.941Z,99609.91
2022-12-25T15:27:45.716Z,99614.50
2022-12-25T15:30:48.040Z,99612.56
2022-12-25T15:33:50.599Z,99614.25
2022-12-25T15:36:53.078Z,99616.31
2022-12-25T15:39:57.405Z,99612.69
2022-12-25T15:42:59.860Z,99614.38
2022-12-25T15:46:01.819Z,99621.63
2022-12-25T15:49:03.872Z,99618.00
2022-12-25T15:52:12.737Z,99618.00
2022-12-25T15:55:15.667Z,99621.63
2022-12-25T15:58:17.425Z,99625.25
2022-12-25T16:01:21.072Z,99630.31
2022-12-25T16:04:25.105Z,99628.75
2022-12-25T16:07:28.968Z,99633.09
2022-12-25T16:10:36.657Z,99633.22
2022-12-25T16:13:40.515Z,99634.19
2022-12-25T16:16:42.489Z,99633.22
2022-12-25T16:19:47.367Z,99636.00
2022-12-25T16:22:49.271Z,99645.78
2022-12-25T16:25:51.201Z,99652.19
2022-12-25T16:28:53.057Z,99647.84
2022-12-25T16:31:55.222Z,99643.50
2022-12-25T16:34:57.146Z,99636.28
2022-12-25T16:37:59.005Z,99647.28
2022-12-25T16:41:01.871Z,99647.50
2022-12-25T16:44:09.455Z,99650.16
2022-12-25T16:47:12.089Z,99654.75
2022-12-25T16:50:14.143Z,99649.81
2022-12-25T16:53:16.021Z,99659.59
2022-12-25T16:56:20.712Z,99659.00
2022-12-25T16:59:22.642Z,99658.41
2022-12-25T17:02:24.744Z,99660.69
2022-12-25T17:05:27.081Z,99655.38
2022-12-25T17:08:29.105Z,99651.88
2022-12-25T17:11:31.465Z,99649.47
2022-12-25T17:14:34.375Z,99658.53
2022-12-25T17:17:36.372Z,99659.38
2022-12-25T17:20:38.366Z,99657.44
2022-12-25T17:23:40.544Z,99658.28
2022-12-25T17:26:43.972Z,99653.81
2022-12-25T17:29:48.520Z,99662.25
2022-12-25T17:32:51.266Z,99655.03
2022-12-25T17:35:55.133Z,99661.28
2022-12-25T17:39:01.802Z,99666.25
2022-12-25T17:42:03.795Z,99658.41
2022-12-25T17:45:06.131Z,99663.47
2022-12-25T17:48:07.984Z,99659.00
2022-12-25T17:51:12.624Z,99661.53
2022-12-25T17:54:14.856Z,99662.97
2022-12-25T17:57:16.637Z,99663.81
2022-12-25T18:00:18.930Z,99654.88
2022-12-25T18:03:22.139Z,99661.75
2022-12-25T18:06:27.341Z,99661.88
2022-12-25T18:09:29.472Z,99664.41
2022-12-25T18:12:32.672Z,99658.13
2022-12-25T18:15:39.461Z,99660.78
2022-12-25T18:18:49.684Z,99658.13
2022-12-25T18:21:53.945Z,99657.16
2022-12-25T18:24:55.770Z,99651.75
2022-12-25T18:27:57.704Z,99653.31
2022-12-25T18:31:00.585Z,99661.16
2022-12-25T18:34:02.544Z,99665.63
2022-12-25T18:37:04.616Z,99670.09
2022-12-25T18:40:09.432Z,99667.31
2022-12-25T18:43:11.482Z,99670.94
2022-12-25T18:46:15.476Z,99677.09
2022-12-25T18:49:17.477Z,99671.78
2022-12-25T18:52:47.308Z,99669.13
2022-12-25T18:55:42.229Z,99676.00
2022-12-25T18:58:44.246Z,99673.84
2022-12-25T19:01:46.611Z,99678.19
2022-12-25T19:04:49.025Z,99671.91
2022-12-25T19:07:51.070Z,99674.06
2022-12-25T19:10:52.994Z,99676.97
2022-12-25T19:13:55.059Z,99681.56
2022-12-25T19:16:57.185Z,99680.59
2022-12-25T19:19:59.152Z,99682.53
2022-12-25T19:23:03.872Z,99689.41
2022-12-25T19:26:07.010Z,99684.94
2022-12-25T19:29:08.920Z,99686.88
2022-12-25T19:32:10.892Z,99690.63
2022-12-25T19:35:13.932Z,99701.00
2022-12-25T19:38:16.377Z,99692.91
2022-12-25T19:41:20.296Z,99698.22
2022-12-25T19:44:22.234Z,99691.81
2022-12-25T19:47:24.263Z,99698.94
2022-12-25T19:50:28.543Z,99699.91
2022-12-25T19:53:32.025Z,99701.72
2022-12-25T19:56:34.695Z,99703.41
2022-12-25T19:59:36.581Z,99701.59
2022-12-25T20:02:38.741Z,99701.34
2022-12-25T20:05:44.222Z,99710.06
2022-12-25T20:08:52.720Z,99711.00
2022-12-25T20:11:54.627Z,99711.13
2022-12-25T20:14:56.638Z,99710.16
2022-12-25T20:17:58.467Z,99701.34
2022-12-25T20:21:10.559Z,99709.19
2022-12-25T20:24:12.499Z,99702.19
2022-12-25T20:27:14.485Z,99710.06
2022-12-25T20:30:16.449Z,99710.06
2022-12-25T20:33:18.261Z,99710.88
2022-12-25T20:36:20.880Z,99711.75
2022-12-25T20:39:22.813Z,99716.31
2022-12-25T20:42:24.739Z,99714.41
2022-12-25T20:45:26.625Z,99714.50
2022-12-25T20:48:28.840Z,99710.06
2022-12-25T20:51:30.785Z,99712.59
2022-12-25T20:54:33.557Z,99716.09
2022-12-25T20:57:35.645Z,99721.41
2022-12-25T21:00:40.395Z,99716.09
2022-12-25T21:03:42.882Z,99720.56
2022-12-25T21:06:44.964Z,99723.22
2022-12-25T21:09:46.977Z,99717.16
2022-12-25T21:12:48.816Z,99723.31
2022-12-25T21:15:52.669Z,99715.38
2022-12-25T21:18:54.784Z,99717.06
2022-12-25T21:21:56.654Z,99716.22
2022-12-25T21:24:58.534Z,99718.88
2022-12-25T21:28:00.373Z,99721.53
2022-12-25T21:31:07.055Z,99720.66
2022-12-25T21:34:09.071Z,99714.50
2022-12-25T21:37:10.930Z,99718.13
2022-12-25T21:40:16.366Z,99722.59
2022-12-25T21:43:18.580Z,99724.53
2022-12-25T21:46:20.692Z,99731.66
2022-12-25T21:49:41.137Z,99726.22
2022-12-25T21:52:45.016Z,99731.78
2022-12-25T21:56:02.001Z,99729.38
2022-12-25T21:59:06.165Z,99726.47
2022-12-25T22:02:11.561Z,99727.19
2022-12-25T22:05:33.721Z,99725.38
2022-12-25T22:08:35.663Z,99730.81
2022-12-25T22:11:57.145Z,99732.63
2022-12-25T22:15:03.183Z,99731.78
2022-12-25T22:18:23.717Z,99735.41
2022-12-25T22:21:25.611Z,99733.72
2022-12-25T22:24:27.448Z,99737.09
2022-12-25T22:27:34.271Z,99732.50
2022-12-25T22:30:36.186Z,99735.28
2022-12-25T22:33:38.053Z,99740.59
2022-12-25T22:36:39.907Z,99731.91
2022-12-25T22:39:41.895Z,99727.56
2022-12-25T22:42:44.359Z,99730.34
2022-12-25T22:45:47.584Z,99730.34
2022-12-25T22:48:51.124Z,99736.72
2022-12-25T22:51:55.110Z,99734.06
2022-12-25T22:54:58.467Z,99739.38
2022-12-25T22:58:01.870Z,99741.31
2022-12-25T23:01:09.184Z,99746.63
2022-12-25T23:04:13.189Z,99740.47
2022-12-25T23:07:18.988Z,99749.41
2022-12-25T23:10:22.568Z,99744.22
2022-12-25T23:13:44.395Z,99754.72
2022-12-25T23:16:47.729Z,99748.81
2022-12-25T23:20:08.397Z,99757.00
2022-12-25T23:23:34.073Z,99762.44
2022-12-25T23:26:35.933Z,99762.56
2022-12-25T23:29:39.325Z,99767.13
2022-12-25T23:32:41.795Z,99771.13
2022-12-25T23:35:43.630Z,99774.84
2022-12-25T23:38:45.723Z,99773.28
2022-12-25T23:41:47.511Z,99784.00
2022-12-25T23:44:49.388Z,99783.91
2022-12-25T23:47:51.270Z,99781.25
2022-12-25T23:50:53.252Z,99783.91
2022-12-25T23:53:55.264Z,99789.44
2022-12-25T23:56:57.876Z,99792.94
2022-12-25T23:59:59.781Z,99783.28
